Time;durP1;ratioP1;P1;durP2;ratioP2;P2;SDS_P1;SDS_P2;PMS_P1;PMS_P2;Temp;Humidity;BMP_temperature;BMP_pressure;BME280_temperature;BME280_humidity;BME280_pressure;Samples;Min_cycle;Max_cycle;Signal;HPM_P1;HPM_P2
2023/10/16 00:02:13;;;;;;;36.45;13.15;;;;;;;18.39;68.57;99159.66;5080941;28;20070;-67
2023/10/16 00:04:45;;;;;;;33.85;11.98;;;;;;;18.46;68.72;99173.78;5081010;28;20444;-66
2023/10/16 00:07:13;;;;;;;23.40;12.90;;;;;;;18.44;67.75;99169.69;5079879;28;20392;-66
2023/10/16 00:09:39;;;;;;;26.48;12.98;;;;;;;18.44;67.39;99172.38;5078977;28;20092;-63
2023/10/16 00:12:05;;;;;;;27.13;13.38;;;;;;;18.46;67.36;99181.03;5080893;28;20378;-66
2023/10/16 00:14:31;;;;;;;26.92;12.18;;;;;;;18.47;66.74;99183.47;5080550;28;20390;-69
2023/10/16 00:16:59;;;;;;;25.38;13.13;;;;;;;18.46;66.37;99184.53;5078958;28;20365;-67
2023/10/16 00:19:24;;;;;;;22.20;12.32;;;;;;;18.42;66.07;99183.34;5079505;28;20368;-69
2023/10/16 00:21:52;;;;;;;22.40;11.75;;;;;;;18.42;65.90;99172.63;5079646;28;20040;-69
2023/10/16 00:24:18;;;;;;;27.05;12.10;;;;;;;18.32;65.47;99199.13;5080274;28;20138;-68
2023/10/16 00:26:49;;;;;;;35.50;12.93;;;;;;;18.35;65.26;99204.03;5080533;28;20459;-67
2023/10/16 00:29:24;;;;;;;29.02;11.13;;;;;;;18.32;64.23;99207.19;5080408;28;20028;-68
2023/10/16 00:31:51;;;;;;;34.05;11.13;;;;;;;18.27;64.07;99206.22;5080730;28;20082;-63
2023/10/16 00:34:20;;;;;;;40.63;11.38;;;;;;;18.10;63.63;99196.09;5079839;28;20040;-66
2023/10/16 00:36:55;;;;;;;38.95;9.85;;;;;;;18.04;63.87;99202.34;5079757;28;20384;-66
2023/10/16 00:39:22;;;;;;;37.55;10.43;;;;;;;17.92;64.06;99200.63;5080651;28;20257;-64
2023/10/16 00:41:50;;;;;;;43.28;10.50;;;;;;;17.92;63.63;99222.06;5078621;28;20108;-64
2023/10/16 00:44:17;;;;;;;33.90;10.10;;;;;;;17.81;63.79;99229.78;5080060;28;20154;-63
2023/10/16 00:46:48;;;;;;;27.70;9.38;;;;;;;17.78;63.57;99226.75;5078014;28;20449;-67
2023/10/16 00:49:15;;;;;;;18.90;7.82;;;;;;;17.77;63.24;99243.84;5080386;28;20230;-63
2023/10/16 00:51:41;;;;;;;29.27;8.30;;;;;;;17.63;63.84;99253.78;5078701;28;20438;-64
2023/10/16 00:54:19;;;;;;;20.30;7.40;;;;;;;17.63;63.16;99248.44;5079515;28;20237;-66
2023/10/16 00:56:46;;;;;;;20.33;6.93;;;;;;;17.59;63.27;99252.59;5078340;28;20032;-67
2023/10/16 00:59:23;;;;;;;23.15;6.10;;;;;;;17.48;63.21;99243.44;5079019;28;20050;-67
2023/10/16 01:02:06;;;;;;;26.92;8.10;;;;;;;17.48;62.64;99242.59;5078598;28;20055;-64
2023/10/16 01:04:32;;;;;;;20.52;7.28;;;;;;;17.46;62.79;99245.50;5078851;28;20318;-67
2023/10/16 01:06:58;;;;;;;24.55;6.88;;;;;;;17.36;62.69;99252.38;5078851;28;20358;-66
2023/10/16 01:09:23;;;;;;;22.80;6.85;;;;;;;17.37;62.63;99260.19;5078624;28;20037;-63
2023/10/16 01:11:50;;;;;;;21.13;6.18;;;;;;;17.42;62.16;99254.19;5079613;28;20082;-66
2023/10/16 01:14:17;;;;;;;30.80;6.72;;;;;;;17.36;62.17;99261.22;5079475;28;20036;-66
2023/10/16 01:16:43;;;;;;;24.10;6.18;;;;;;;17.34;62.00;99270.50;5078557;28;20064;-63
2023/10/16 01:19:10;;;;;;;30.63;6.40;;;;;;;17.26;61.90;99262.75;5079395;28;20043;-66
2023/10/16 01:21:35;;;;;;;27.60;6.72;;;;;;;17.32;61.64;99265.38;5079688;28;20047;-66
2023/10/16 01:24:12;;;;;;;17.95;5.05;;;;;;;17.36;61.68;99279.13;5079883;28;20111;-64
2023/10/16 01:26:41;;;;;;;16.23;5.05;;;;;;;17.34;61.45;99284.72;5076490;28;20032;-66
2023/10/16 01:29:09;;;;;;;10.07;4.47;;;;;;;17.31;61.47;99266.41;5078787;28;20348;-66
2023/10/16 01:31:36;;;;;;;14.60;4.45;;;;;;;17.33;61.34;99287.59;5077648;28;20041;-63
2023/10/16 01:34:02;;;;;;;9.20;3.95;;;;;;;17.32;61.26;99277.94;5079455;28;20041;-67
2023/10/16 01:36:30;;;;;;;13.73;4.40;;;;;;;17.31;61.19;99271.75;5077588;28;20105;-64
2023/10/16 01:38:58;;;;;;;14.75;3.67;;;;;;;17.25;61.05;99288.69;5079339;28;20036;-67
2023/10/16 01:41:24;;;;;;;19.40;4.05;;;;;;;17.26;60.97;99289.50;5077648;28;20106;-66
2023/10/16 01:43:52;;;;;;;20.15;5.35;;;;;;;17.18;60.59;99277.22;5078839;28;20303;-67
2023/10/16 01:46:18;;;;;;;18.15;4.50;;;;;;;17.17;60.27;99305.00;5076475;28;20068;-65
2023/10/16 01:48:46;;;;;;;20.35;5.68;;;;;;;17.14;59.99;99297.41;5078311;28;20090;-63
2023/10/16 01:51:18;;;;;;;22.48;4.68;;;;;;;17.14;60.23;99308.09;5077675;28;20103;-66
2023/10/16 01:53:44;;;;;;;11.52;3.58;;;;;;;17.10;60.06;99305.03;5078618;28;20881;-63
2023/10/16 01:56:12;;;;;;;16.08;4.22;;;;;;;17.12;60.00;99312.84;5080730;28;20037;-64
2023/10/16 01:58:39;;;;;;;12.65;4.13;;;;;;;17.05;59.79;99312.06;5086138;28;20040;-67
2023/10/16 02:01:04;;;;;;;10.63;3.75;;;;;;;16.97;59.77;99318.47;5084489;28;20070;-67
2023/10/16 02:03:30;;;;;;;10.25;3.08;;;;;;;16.97;59.67;99323.84;5084806;28;20028;-67
2023/10/16 02:05:55;;;;;;;7.15;2.15;;;;;;;16.97;59.23;99341.72;5076852;28;20342;-63
2023/10/16 02:08:21;;;;;;;13.43;3.30;;;;;;;16.92;58.63;99345.03;5079426;28;20036;-67
2023/10/16 02:10:48;;;;;;;11.40;2.92;;;;;;;16.88;58.28;99327.78;5078610;28;20036;-66
2023/10/16 02:13:14;;;;;;;8.05;2.80;;;;;;;16.79;57.89;99332.56;5076195;28;20097;-66
2023/10/16 02:15:39;;;;;;;7.85;2.40;;;;;;;16.79;57.73;99345.91;5078074;28;20040;-64
2023/10/16 02:18:18;;;;;;;9.23;3.30;;;;;;;16.80;57.30;99352.91;5078349;28;20036;-64
2023/10/16 02:20:49;;;;;;;9.45;2.47;;;;;;;16.69;56.95;99358.09;5076867;28;20037;-67
2023/10/16 02:23:15;;;;;;;14.82;3.38;;;;;;;16.73;56.40;99362.00;5079569;28;20037;-66
2023/10/16 02:25:41;;;;;;;21.15;4.78;;;;;;;16.70;56.28;99359.75;5077867;28;20096;-67
2023/10/16 02:28:08;;;;;;;13.05;3.00;;;;;;;16.67;56.10;99366.31;5077638;28;20044;-66
2023/10/16 02:30:36;;;;;;;17.77;3.20;;;;;;;16.70;55.40;99378.44;5076075;28;20032;-67
2023/10/16 02:35:57;;;;;;;8.23;1.90;;;;;;;16.68;54.50;99397.38;5058937;28;20060;-64
2023/10/16 02:38:28;;;;;;;4.90;1.17;;;;;;;16.64;54.55;99388.06;5077580;28;20054;-64
2023/10/16 02:41:03;;;;;;;4.53;1.33;;;;;;;16.65;54.53;99389.78;5077917;28;20045;-64
2023/10/16 02:43:29;;;;;;;6.07;1.60;;;;;;;16.64;54.64;99388.06;5078711;28;20031;-66
2023/10/16 02:45:56;;;;;;;4.72;1.60;;;;;;;16.64;54.40;99392.59;5093494;28;20049;-63
2023/10/16 02:48:23;;;;;;;6.95;1.23;;;;;;;16.64;54.22;99401.44;5086740;28;20036;-66
2023/10/16 02:50:50;;;;;;;8.63;2.35;;;;;;;16.64;53.59;99420.16;5077018;28;20033;-63
2023/10/16 02:53:19;;;;;;;3.22;1.35;;;;;;;16.64;53.73;99427.34;5079238;28;20055;-64
2023/10/16 02:55:49;;;;;;;5.10;0.95;;;;;;;16.69;53.81;99443.66;5078175;28;20045;-66
2023/10/16 02:58:15;;;;;;;3.67;0.88;;;;;;;16.62;53.45;99440.91;5077640;28;20225;-64
2023/10/16 03:00:49;;;;;;;2.25;0.80;;;;;;;16.37;54.08;99470.13;5077971;28;20266;-66
2023/10/16 03:03:17;;;;;;;10.75;1.35;;;;;;;16.42;54.70;99482.88;5077263;28;20406;-66
2023/10/16 03:05:44;;;;;;;3.55;0.90;;;;;;;16.49;54.48;99481.03;5078244;28;20040;-66
2023/10/16 03:08:10;;;;;;;2.08;1.08;;;;;;;16.50;54.37;99488.03;5075732;28;20037;-67
2023/10/16 03:10:36;;;;;;;3.00;1.05;;;;;;;16.50;54.10;99498.72;5078264;28;20067;-64
2023/10/16 03:13:05;;;;;;;5.68;1.10;;;;;;;16.46;54.58;99494.81;5075955;28;20321;-63
2023/10/16 03:15:36;;;;;;;4.15;1.00;;;;;;;16.40;55.00;99500.97;5077989;28;20037;-63
2023/10/16 03:18:02;;;;;;;1.08;0.77;;;;;;;16.57;54.57;99520.91;5076214;28;20060;-64
2023/10/16 03:20:28;;;;;;;3.83;1.25;;;;;;;16.59;54.69;99525.03;5078640;28;20028;-66
2023/10/16 03:23:00;;;;;;;4.80;1.50;;;;;;;16.45;56.15;99526.06;5078255;28;20333;-64
2023/10/16 03:25:27;;;;;;;5.57;1.98;;;;;;;16.32;57.62;99526.03;5077883;28;20033;-66
2023/10/16 03:27:55;;;;;;;6.25;1.98;;;;;;;16.34;57.85;99528.50;5077940;28;20058;-67
2023/10/16 03:30:21;;;;;;;4.25;1.60;;;;;;;16.29;57.81;99529.94;5078354;28;20241;-64
2023/10/16 03:32:47;;;;;;;1.75;1.20;;;;;;;16.43;56.41;99527.28;5079290;28;20041;-67
2023/10/16 03:35:20;;;;;;;2.38;0.98;;;;;;;16.26;56.64;99529.53;5078555;28;20060;-67
2023/10/16 03:37:49;;;;;;;4.38;1.02;;;;;;;16.33;56.57;99540.22;5077930;28;20426;-66
2023/10/16 03:40:14;;;;;;;3.05;1.42;;;;;;;16.19;56.45;99540.22;5077663;28;20104;-67
2023/10/16 03:42:40;;;;;;;3.80;1.42;;;;;;;16.20;55.91;99544.53;5077886;28;20047;-64
2023/10/16 03:45:06;;;;;;;4.03;1.30;;;;;;;16.08;56.12;99551.50;5076798;28;20032;-66
2023/10/16 03:47:33;;;;;;;5.78;1.65;;;;;;;16.02;56.16;99556.81;5076837;28;20056;-66
2023/10/16 03:49:59;;;;;;;5.07;2.10;;;;;;;15.96;56.58;99559.28;5079485;28;20411;-66
2023/10/16 03:52:26;;;;;;;9.93;2.03;;;;;;;15.86;56.45;99566.00;5079967;28;20345;-67
2023/10/16 03:54:53;;;;;;;7.65;1.98;;;;;;;15.85;56.29;99567.84;5080990;28;20028;-67
2023/10/16 03:57:20;;;;;;;5.78;2.50;;;;;;;15.75;56.66;99567.41;5079786;28;20045;-63
2023/10/16 03:59:47;;;;;;;7.57;2.30;;;;;;;15.67;56.73;99578.25;5081029;28;20024;-64
2023/10/16 04:02:19;;;;;;;6.53;2.53;;;;;;;15.66;57.26;99589.97;5081411;28;20288;-67
2023/10/16 04:04:46;;;;;;;4.45;2.72;;;;;;;15.72;57.09;99599.03;5081260;28;20059;-67
2023/10/16 04:07:14;;;;;;;4.88;2.60;;;;;;;15.69;57.50;99599.41;5080951;28;20036;-67
2023/10/16 04:09:49;;;;;;;11.45;3.17;;;;;;;15.71;57.10;99611.53;5080200;28;20052;-63
2023/10/16 04:12:20;;;;;;;6.68;3.10;;;;;;;15.67;57.18;99607.63;5081944;28;20048;-67
2023/10/16 04:14:50;;;;;;;9.02;3.92;;;;;;;15.52;57.67;99588.19;5082398;28;20035;-66
2023/10/16 04:17:17;;;;;;;10.88;3.85;;;;;;;15.51;57.90;99603.38;5080307;28;20072;-66
2023/10/16 04:20:43;;;;;;;9.90;3.70;;;;;;;15.46;58.11;99613.00;5081422;28;20419;-63
2023/10/16 04:22:44;;;;;;;10.57;4.45;;;;;;;15.36;58.30;99623.19;5061234;28;20219;-63
2023/10/16 04:25:19;;;;;;;13.38;5.45;;;;;;;15.31;58.64;99621.13;5080630;28;20214;-67
2023/10/16 04:27:45;;;;;;;6.03;3.35;;;;;;;15.30;58.31;99624.81;5079517;28;20070;-64
2023/10/16 04:30:32;;;;;;;13.50;4.28;;;;;;;15.28;58.46;99641.00;5080094;28;20040;-64
2023/10/16 04:32:56;;;;;;;8.30;4.70;;;;;;;15.28;58.53;99645.50;5080154;28;20044;-66
2023/10/16 04:38:27;;;;;;;10.65;4.43;;;;;;;15.19;58.44;99654.69;5080793;28;20047;-63
2023/10/16 04:44:22;;;;;;;7.90;3.85;;;;;;;15.15;58.32;99670.25;5080635;28;20201;-66
2023/10/16 04:46:55;;;;;;;7.72;4.32;;;;;;;15.13;58.27;99677.63;5065631;28;20048;-66
2023/10/16 04:49:28;;;;;;;8.63;4.18;;;;;;;15.20;58.07;99677.66;5080689;28;20039;-64
2023/10/16 04:52:01;;;;;;;7.85;4.45;;;;;;;15.19;57.58;99695.50;5079054;28;20125;-66
2023/10/16 04:55:23;;;;;;;8.05;3.80;;;;;;;15.26;57.61;99711.56;5079625;28;20032;-64
2023/10/16 05:00:00;;;;;;;5.63;3.05;;;;;;;15.09;57.13;99704.88;5079396;28;20032;-66
2023/10/16 05:02:40;;;;;;;8.93;3.95;;;;;;;15.15;57.16;99715.59;5079568;28;20430;-67
2023/10/16 05:07:53;;;;;;;9.68;3.88;;;;;;;15.25;56.48;99715.25;5079437;28;20090;-66
2023/10/16 05:16:30;;;;;;;7.85;3.47;;;;;;;15.19;55.64;99711.50;5078403;28;20395;-63
2023/10/16 05:18:43;;;;;;;8.25;3.50;;;;;;;15.18;54.89;99720.53;5083647;28;20040;-63
2023/10/16 06:16:16;;;;;;;19.02;4.75;;;;;;;14.91;51.82;99874.09;5077094;28;20055;-66
2023/10/16 06:18:42;;;;;;;14.90;4.28;;;;;;;14.87;51.29;99882.66;5077892;28;20424;-63
2023/10/16 06:21:07;;;;;;;14.38;3.72;;;;;;;14.68;51.43;99887.56;5086629;28;20767;-66
2023/10/16 06:23:33;;;;;;;11.82;3.78;;;;;;;14.82;50.89;99887.72;5078256;28;20028;-66
2023/10/16 06:26:02;;;;;;;12.63;3.92;;;;;;;14.87;50.91;99896.81;5086446;28;20040;-63
2023/10/16 06:28:27;;;;;;;21.77;4.90;;;;;;;14.91;50.60;99914.09;5077812;28;20040;-66
2023/10/16 06:30:53;;;;;;;11.88;4.65;;;;;;;14.97;50.85;99918.69;5077065;28;20036;-65
2023/10/16 06:33:18;;;;;;;13.50;4.95;;;;;;;14.95;50.76;99923.38;5079599;28;20041;-63
2023/10/16 06:35:44;;;;;;;9.30;4.65;;;;;;;14.79;50.35;99907.59;5086117;28;20059;-66
2023/10/16 06:38:14;;;;;;;16.33;5.10;;;;;;;14.69;50.59;99918.53;5078362;28;20100;-67
2023/10/16 06:40:40;;;;;;;16.00;4.35;;;;;;;14.80;50.25;99917.25;5084259;28;20024;-66
2023/10/16 06:43:09;;;;;;;12.07;4.85;;;;;;;14.65;50.64;99919.91;5078525;28;20483;-66
2023/10/16 06:45:42;;;;;;;16.38;4.05;;;;;;;14.73;49.96;99920.81;5084076;28;20040;-64
2023/10/16 06:48:15;;;;;;;12.63;4.30;;;;;;;14.75;49.70;99927.63;5077879;28;20051;-66
2023/10/16 06:50:52;;;;;;;12.82;4.38;;;;;;;14.80;49.52;99922.56;5084626;28;20036;-64
2023/10/16 06:53:18;;;;;;;10.98;4.25;;;;;;;14.63;49.33;99921.09;5077183;28;20071;-66
2023/10/16 06:55:45;;;;;;;9.27;3.60;;;;;;;14.73;49.58;99931.50;5081668;28;20319;-66
2023/10/16 06:58:11;;;;;;;13.00;3.60;;;;;;;14.79;49.29;99936.91;5076995;28;20289;-66
2023/10/16 07:00:38;;;;;;;10.95;4.18;;;;;;;14.87;48.78;99944.81;5083949;28;20036;-67
2023/10/16 07:03:13;;;;;;;9.30;3.70;;;;;;;14.92;48.87;99970.91;5077896;28;20028;-63
2023/10/16 07:05:42;;;;;;;17.35;3.53;;;;;;;14.91;48.53;99961.28;5082363;28;20029;-64
2023/10/16 07:08:18;;;;;;;12.23;4.40;;;;;;;14.93;47.89;99961.91;5088168;28;20245;-64
2023/10/16 07:10:49;;;;;;;11.70;3.88;;;;;;;14.96;48.16;99978.38;5079754;28;20036;-63
2023/10/16 07:13:28;;;;;;;11.80;3.42;;;;;;;14.91;47.35;99971.94;5087096;28;20032;-67
2023/10/16 07:15:56;;;;;;;9.25;3.60;;;;;;;14.94;47.34;99988.38;5078065;28;20249;-66
2023/10/16 07:18:25;;;;;;;9.60;3.80;;;;;;;14.88;46.25;99982.97;5082931;28;20033;-63
2023/10/16 07:23:20;;;;;;;8.02;3.15;;;;;;;14.97;45.62;100000.53;5078200;28;20041;-64
2023/10/16 07:25:54;;;;;;;12.05;3.15;;;;;;;14.97;45.36;99997.84;5080641;28;20040;-67
2023/10/16 07:28:21;;;;;;;5.35;2.53;;;;;;;14.95;45.46;100008.72;5086656;28;20032;-63
2023/10/16 07:30:47;;;;;;;8.65;2.50;;;;;;;15.04;45.28;100011.28;5090910;28;20037;-67
2023/10/16 07:33:16;;;;;;;5.53;2.83;;;;;;;15.15;44.82;100005.47;5086025;28;20082;-63
2023/10/16 07:35:46;;;;;;;6.65;2.60;;;;;;;15.08;44.34;100023.22;5092653;28;20054;-66
2023/10/16 07:38:25;;;;;;;6.90;2.90;;;;;;;15.09;44.05;100025.72;5081552;28;20032;-66
2023/10/16 07:40:53;;;;;;;9.98;2.40;;;;;;;15.04;44.06;100027.28;5087700;28;20041;-66
2023/10/16 07:43:27;;;;;;;8.65;3.40;;;;;;;15.06;43.69;100022.59;5081424;28;20351;-66
2023/10/16 07:48:37;;;;;;;5.72;2.67;;;;;;;15.07;43.46;100027.75;5079778;28;20254;-63
2023/10/16 07:51:06;;;;;;;4.90;2.70;;;;;;;15.09;43.76;100017.72;5081266;28;20083;-64
2023/10/16 07:53:36;;;;;;;10.18;2.97;;;;;;;15.07;42.59;99998.41;5090547;28;20056;-63
2023/10/16 07:56:02;;;;;;;11.82;2.50;;;;;;;15.16;42.65;100007.97;5083032;28;20111;-64
2023/10/16 08:01:52;;;;;;;7.97;2.80;;;;;;;15.16;42.48;100033.81;5079614;28;20284;-66
2023/10/16 08:04:29;;;;;;;7.13;2.15;;;;;;;15.18;41.92;100043.28;5081899;28;20060;-63
2023/10/16 08:07:04;;;;;;;10.20;3.25;;;;;;;15.20;41.50;100048.44;5087397;28;20028;-63
2023/10/16 08:12:01;;;;;;;7.30;2.10;;;;;;;15.26;40.86;100045.84;5080553;28;20329;-63
2023/10/16 08:14:30;;;;;;;8.93;2.50;;;;;;;15.32;40.42;100047.78;5079407;28;20262;-64
2023/10/16 08:17:04;;;;;;;5.53;2.10;;;;;;;15.39;39.77;100047.03;5083368;28;20028;-63
2023/10/16 08:19:31;;;;;;;;;;;;;;;15.45;40.28;100035.63;5090864;28;20384;-66
2023/10/16 08:21:58;;;;;;;7.93;2.55;;;;;;;15.45;39.70;100041.78;5081847;28;20236;-63
2023/10/16 08:24:24;;;;;;;8.95;2.13;;;;;;;15.53;39.30;100055.03;5089132;28;20070;-63
2023/10/16 08:26:51;;;;;;;4.72;2.17;;;;;;;15.52;39.27;100057.88;5081961;28;20109;-64
2023/10/16 08:31:43;;;;;;;4.45;1.88;;;;;;;15.77;38.86;100053.94;5082748;28;20070;-67
2023/10/16 08:34:10;;;;;;;9.02;2.13;;;;;;;15.89;38.77;100056.94;5090873;28;20036;-66
2023/10/16 08:36:36;;;;;;;4.57;1.88;;;;;;;16.05;38.17;100058.53;5080334;28;20028;-64
2023/10/16 08:39:18;;;;;;;4.10;1.90;;;;;;;16.11;37.28;100063.97;5079677;28;20033;-67
2023/10/16 08:42:00;;;;;;;6.05;2.60;;;;;;;16.21;37.69;100069.00;5080584;28;20032;-66
2023/10/16 08:44:28;;;;;;;5.07;2.15;;;;;;;16.29;37.29;100056.31;5080240;28;20235;-64
2023/10/16 08:49:24;;;;;;;5.68;2.15;;;;;;;16.54;37.14;100058.59;5079915;28;20087;-67
2023/10/16 08:51:52;;;;;;;6.63;2.40;;;;;;;16.67;36.07;100057.94;5079992;28;20049;-63
2023/10/16 08:57:03;;;;;;;4.78;1.90;;;;;;;16.77;34.40;100064.59;5082456;28;20039;-63
2023/10/16 08:59:30;;;;;;;6.22;2.33;;;;;;;16.85;34.43;100053.75;5082560;28;20237;-67
2023/10/16 09:02:01;;;;;;;8.88;2.40;;;;;;;16.84;33.42;100060.13;5079217;28;20468;-63
2023/10/16 09:04:27;;;;;;;6.65;2.00;;;;;;;16.78;32.77;100060.09;5090557;28;20033;-67
2023/10/16 09:06:53;;;;;;;4.57;2.00;;;;;;;16.67;33.51;100061.44;5083504;28;20032;-66
2023/10/16 09:09:20;;;;;;;4.72;1.90;;;;;;;16.75;33.75;100076.50;5087860;28;20250;-67
2023/10/16 09:11:50;;;;;;;4.85;1.92;;;;;;;16.76;34.08;100070.16;5082378;28;20040;-66
2023/10/16 09:14:20;;;;;;;4.60;2.03;;;;;;;16.75;34.25;100080.00;5079923;28;20096;-66
2023/10/16 09:16:55;;;;;;;4.38;2.50;;;;;;;16.77;34.06;100085.16;5085233;28;20257;-64
2023/10/16 09:19:32;;;;;;;7.00;2.10;;;;;;;16.83;34.45;100074.53;5080298;28;20090;-63
2023/10/16 09:21:57;;;;;;;5.60;1.75;;;;;;;16.79;34.31;100080.44;5082979;28;20253;-63
2023/10/16 09:24:24;;;;;;;5.90;2.15;;;;;;;16.89;34.26;100079.09;5087926;28;20146;-63
2023/10/16 09:26:54;;;;;;;2.97;1.98;;;;;;;16.88;33.21;100080.13;5079556;28;20109;-66
2023/10/16 09:29:29;;;;;;;3.42;2.17;;;;;;;16.82;33.76;100086.25;5078842;28;20586;-67
2023/10/16 09:31:54;;;;;;;6.65;1.77;;;;;;;16.81;33.89;100081.09;5085475;28;20039;-66
2023/10/16 09:34:25;;;;;;;3.22;1.85;;;;;;;16.82;33.27;100072.03;5080324;28;20028;-63
2023/10/16 09:39:40;;;;;;;11.23;1.52;;;;;;;16.93;31.80;100068.84;5078431;28;20075;-64
2023/10/16 09:42:14;;;;;;;7.60;1.70;;;;;;;16.98;31.21;100069.06;5079595;28;20040;-66
2023/10/16 09:44:44;;;;;;;2.88;1.30;;;;;;;16.95;30.58;100063.28;5087518;28;20123;-66
2023/10/16 09:47:25;;;;;;;2.88;1.20;;;;;;;16.99;30.27;100065.38;5081044;28;20353;-63
2023/10/16 09:49:58;;;;;;;2.22;1.13;;;;;;;17.08;30.52;100061.53;5090421;28;20036;-67
2023/10/16 09:52:24;;;;;;;1.67;0.88;;;;;;;17.18;28.87;100055.81;5077465;28;20028;-67
2023/10/16 09:54:54;;;;;;;3.03;1.27;;;;;;;17.32;30.79;100046.00;5086988;28;20053;-67
2023/10/16 09:57:26;;;;;;;2.13;1.30;;;;;;;17.53;29.82;100032.50;5080462;28;20039;-67
2023/10/16 09:59:54;;;;;;;4.90;1.55;;;;;;;17.81;30.23;100027.09;5079525;28;20036;-67
2023/10/16 10:02:35;;;;;;;2.58;1.40;;;;;;;18.01;29.94;100027.16;5078357;28;20033;-66
2023/10/16 10:05:09;;;;;;;3.15;1.38;;;;;;;18.27;30.19;100021.81;5082609;28;20313;-67
2023/10/16 10:07:38;;;;;;;3.63;2.28;;;;;;;18.37;28.93;100016.06;5078273;28;20288;-64
2023/10/16 10:13:23;;;;;;;3.08;0.70;;;;;;;18.64;24.51;100012.34;5078235;28;20206;-65
2023/10/16 10:15:51;;;;;;;2.88;1.50;;;;;;;18.65;24.44;100016.69;5076559;28;20246;-67
2023/10/16 10:21:11;;;;;;;3.72;0.90;;;;;;;18.85;24.11;100014.00;5077376;28;20363;-66
2023/10/16 10:23:37;;;;;;;2.38;0.60;;;;;;;18.94;23.66;100009.25;5087968;28;20364;-66
2023/10/16 10:26:07;;;;;;;1.63;0.80;;;;;;;19.06;23.93;100002.19;5091207;28;20027;-64
2023/10/16 10:28:36;;;;;;;4.30;1.08;;;;;;;19.11;24.08;100013.94;5090232;28;20063;-67
2023/10/16 10:31:05;;;;;;;1.10;0.63;;;;;;;19.12;23.49;100004.03;5078744;28;20028;-64
2023/10/16 10:33:51;;;;;;;3.00;0.60;;;;;;;19.16;22.66;100001.75;5088615;28;20036;-63
2023/10/16 10:36:34;;;;;;;1.98;0.60;;;;;;;19.16;23.01;99996.38;5079780;28;20032;-67
2023/10/16 10:39:21;;;;;;;2.35;0.82;;;;;;;19.27;22.95;99998.41;5083481;28;20024;-63
2023/10/16 10:41:54;;;;;;;2.47;0.70;;;;;;;19.26;23.01;99999.44;5086585;28;20346;-68
2023/10/16 10:44:33;;;;;;;2.72;0.98;;;;;;;19.23;23.21;99997.19;5079720;28;20094;-69
2023/10/16 10:47:02;;;;;;;2.38;0.80;;;;;;;19.29;23.20;99999.03;5083034;28;20041;-69
2023/10/16 10:49:35;;;;;;;6.68;1.13;;;;;;;19.22;22.55;99991.00;5076886;28;20315;-69
2023/10/16 10:52:01;;;;;;;2.53;1.10;;;;;;;19.28;22.74;99987.47;5083294;28;20024;-67
2023/10/16 10:54:27;;;;;;;1.98;1.40;;;;;;;19.36;23.51;99991.75;5086495;28;20162;-66
2023/10/16 10:56:53;;;;;;;5.38;1.00;;;;;;;19.40;23.76;99988.44;5075767;28;20045;-69
2023/10/16 10:59:39;;;;;;;3.13;2.22;;;;;;;19.36;22.18;99991.75;5091217;28;20039;-66
2023/10/16 11:04:58;;;;;;;5.35;0.55;;;;;;;19.51;22.33;99983.44;5065628;28;20392;-67
2023/10/16 11:07:40;;;;;;;1.30;1.20;;;;;;;19.52;22.41;99980.56;5091557;28;20157;-64
2023/10/16 11:10:06;;;;;;;1.00;0.60;;;;;;;19.53;23.01;99987.59;5082613;28;20040;-64
2023/10/16 11:12:33;;;;;;;1.88;1.02;;;;;;;19.40;22.27;99979.56;5080941;28;20093;-63
2023/10/16 11:15:01;;;;;;;3.15;0.98;;;;;;;19.44;22.26;99976.25;5081181;28;20032;-63
2023/10/16 11:17:35;;;;;;;1.25;0.85;;;;;;;19.30;21.97;99965.78;5089118;28;20273;-66
2023/10/16 11:22:45;;;;;;;1.80;0.60;;;;;;;19.52;22.53;99963.59;5082848;28;20036;-66
2023/10/16 11:25:15;;;;;;;1.55;0.68;;;;;;;19.61;22.59;99956.97;5081670;28;20038;-63
2023/10/16 11:27:42;;;;;;;2.03;0.68;;;;;;;19.62;22.47;99959.44;5081092;28;20036;-65
2023/10/16 11:30:18;;;;;;;6.75;1.33;;;;;;;19.63;22.32;99957.56;5091087;28;20434;-66
2023/10/16 11:32:46;;;;;;;2.25;0.90;;;;;;;19.64;22.56;99961.91;5082853;28;20028;-64
2023/10/16 11:35:17;;;;;;;2.10;1.00;;;;;;;19.53;21.70;99967.97;5089806;28;20044;-67
2023/10/16 11:37:50;;;;;;;1.95;1.02;;;;;;;19.43;22.63;99973.75;5080745;28;20070;-63
2023/10/16 11:40:24;;;;;;;1.15;1.10;;;;;;;19.50;23.12;99973.72;5086738;28;20056;-63
2023/10/16 11:42:52;;;;;;;0.70;0.50;;;;;;;19.63;21.93;99976.38;5080712;28;20285;-64
2023/10/16 11:45:20;;;;;;;0.68;0.68;;;;;;;19.56;22.32;99980.97;5086123;28;20203;-64
2023/10/16 11:50:40;;;;;;;5.40;2.10;;;;;;;19.39;22.67;99978.75;5082280;28;20038;-64
2023/10/16 11:53:07;;;;;;;2.47;0.90;;;;;;;19.54;22.27;99977.66;5088948;28;20114;-63
2023/10/16 11:55:38;;;;;;;2.75;0.70;;;;;;;19.58;21.83;99985.09;5081934;28;20115;-63
2023/10/16 11:58:07;;;;;;;2.92;2.72;;;;;;;19.41;22.05;99984.72;5086673;28;20048;-64
2023/10/16 12:00:35;;;;;;;1.42;1.25;;;;;;;19.45;21.91;99990.50;5080223;28;20359;-63
2023/10/16 12:03:07;;;;;;;1.42;0.82;;;;;;;19.54;22.02;99986.56;5079673;28;20032;-67
2023/10/16 12:05:34;;;;;;;1.67;0.80;;;;;;;19.52;22.01;99994.00;5079278;28;20082;-66
2023/10/16 12:07:59;;;;;;;2.40;1.05;;;;;;;19.57;21.74;99994.19;5084689;28;20158;-67
2023/10/16 12:10:28;;;;;;;3.53;0.90;;;;;;;19.56;21.62;99995.22;5091471;28;20380;-66
2023/10/16 12:12:55;;;;;;;1.38;0.75;;;;;;;19.61;21.49;99992.72;5084693;28;20099;-63
2023/10/16 12:15:22;;;;;;;3.53;0.80;;;;;;;19.68;21.70;99987.31;5090711;28;20032;-67
2023/10/16 12:17:48;;;;;;;4.47;1.40;;;;;;;19.68;21.83;99982.75;5086103;28;20099;-64
2023/10/16 12:20:16;;;;;;;5.75;1.70;;;;;;;19.61;21.63;99992.72;5092606;28;20280;-63
2023/10/16 12:22:41;;;;;;;2.95;0.90;;;;;;;19.73;21.33;99996.38;5084821;28;20092;-64
2023/10/16 12:25:10;;;;;;;2.78;1.48;;;;;;;19.76;21.71;99993.25;5090066;28;20213;-65
2023/10/16 12:27:39;;;;;;;0.95;0.73;;;;;;;19.70;21.51;99986.06;5084646;28;20040;-63
2023/10/16 12:30:05;;;;;;;5.05;1.02;;;;;;;19.74;21.97;99981.06;5090291;28;20040;-64
2023/10/16 12:32:32;;;;;;;3.83;1.40;;;;;;;19.76;22.49;99989.72;5083573;28;20044;-64
2023/10/16 12:35:00;;;;;;;1.60;1.02;;;;;;;19.59;21.75;99991.28;5088998;28;20040;-65
2023/10/16 12:37:26;;;;;;;4.25;1.48;;;;;;;19.60;23.04;100003.66;5083960;28;20047;-67
2023/10/16 12:39:53;;;;;;;1.85;1.50;;;;;;;19.50;22.34;99996.03;5089839;28;20226;-64
2023/10/16 12:42:18;;;;;;;5.40;1.70;;;;;;;19.54;22.79;100001.84;5083612;28;20047;-67
2023/10/16 12:44:44;;;;;;;2.95;1.30;;;;;;;19.55;22.28;99990.88;5088259;28;20040;-67
2023/10/16 12:47:11;;;;;;;3.05;1.00;;;;;;;19.58;21.50;100006.56;5082328;28;20046;-67
2023/10/16 12:49:37;;;;;;;3.53;1.23;;;;;;;19.62;21.59;99996.22;5088609;28;20049;-66
2023/10/16 12:52:02;;;;;;;1.98;0.60;;;;;;;19.62;21.31;100009.66;5079350;28;20348;-66
2023/10/16 12:54:28;;;;;;;1.13;0.93;;;;;;;19.61;21.63;100005.31;5088248;28;20388;-64
2023/10/16 12:56:53;;;;;;;3.63;1.50;;;;;;;19.52;22.20;100014.63;5082155;28;20036;-67
2023/10/16 12:59:20;;;;;;;4.05;3.72;;;;;;;19.57;23.17;100012.16;5087627;28;20043;-64
2023/10/16 13:01:49;;;;;;;1.20;1.10;;;;;;;19.36;21.61;100006.03;5082309;28;20070;-64
2023/10/16 13:04:16;;;;;;;8.18;2.08;;;;;;;19.43;22.55;100014.03;5080102;28;20040;-63
2023/10/16 13:06:43;;;;;;;4.28;1.45;;;;;;;19.50;21.97;100016.69;5082575;28;20272;-67
2023/10/16 13:09:18;;;;;;;3.83;1.10;;;;;;;19.51;22.92;100013.81;5088019;28;20044;-64
2023/10/16 13:11:45;;;;;;;4.20;1.30;;;;;;;19.56;22.01;100010.50;5079958;28;20157;-67
2023/10/16 13:14:14;;;;;;;2.70;1.40;;;;;;;19.44;23.71;100018.38;5087356;28;20437;-63
2023/10/16 13:16:40;;;;;;;3.15;1.17;;;;;;;19.49;22.09;100015.06;5079808;28;20037;-64
2023/10/16 13:19:09;;;;;;;1.55;1.33;;;;;;;19.44;21.92;100010.31;5087284;28;20063;-64
2023/10/16 13:21:38;;;;;;;4.22;1.40;;;;;;;19.33;22.86;100009.13;5079474;28;20282;-63
2023/10/16 13:24:13;;;;;;;1.90;1.10;;;;;;;19.46;22.61;100014.44;5084340;28;20445;-63
2023/10/16 13:26:40;;;;;;;1.67;0.90;;;;;;;19.56;22.85;100021.25;5078175;28;20051;-63
2023/10/16 13:29:10;;;;;;;1.95;1.60;;;;;;;19.55;21.11;100012.38;5085442;28;20305;-66
2023/10/16 13:31:40;;;;;;;6.80;2.22;;;;;;;19.51;21.11;100012.97;5079269;28;20108;-66